This is the latest recevied weather packets stored in our database for station/object YM2KRB-11. If no packets are shown the sender has not sent any weather packets the latest 10 day(s).
| Time | Temp. | Humidity | Pressure | Rain* | Wind** | Luminosity | Snow |
|---|---|---|---|---|---|---|---|
| 1777684849 | 8.89° C | 61% | 943.7 hPa | - | - | - | - |
| 1777683648 | 8.33° C | 61% | 943.9 hPa | - | - | - | - |
| 1777682447 | 8.33° C | 62% | 943.9 hPa | - | - | - | - |
| 1777681246 | 7.78° C | 62% | 944 hPa | - | - | - | - |
| 1777680046 | 8.33° C | 62% | 944.1 hPa | - | - | - | - |
| 1777678845 | 7.78° C | 64% | 944.2 hPa | - | - | - | - |
| 1777677644 | 8.33° C | 63% | 944.2 hPa | - | - | - | - |
| 1777676443 | 7.22° C | 66% | 944.3 hPa | - | - | - | - |
| 1777675242 | 7.78° C | 66% | 944.2 hPa | - | - | - | - |
| 1777674043 | 7.78° C | 65% | 944.3 hPa | - | - | - | - |
| 1777672840 | 7.78° C | 67% | 944.5 hPa | - | - | - | - |
| 1777671639 | 7.78° C | 66% | 944.6 hPa | - | - | - | - |
| 1777670438 | 7.78° C | 65% | 944.8 hPa | - | - | - | - |
| 1777669237 | 8.33° C | 70% | 944.7 hPa | - | - | - | - |
| 1777668037 | 8.33° C | 72% | 944.9 hPa | - | - | - | - |
| 1777666836 | 8.33° C | 72% | 944.9 hPa | - | - | - | - |
| 1777665635 | 9.44° C | 67% | 944.9 hPa | - | - | - | - |
| 1777664434 | 9.44° C | 67% | 944.9 hPa | - | - | - | - |
| 1777663234 | 9.44° C | 68% | 944.7 hPa | - | - | - | - |
| 1777662033 | 9.44° C | 69% | 944.9 hPa | - | - | - | - |
| 1777660832 | 10° C | 69% | 944.9 hPa | - | - | - | - |
| 1777659631 | 8.89° C | 73% | 944.7 hPa | - | - | - | - |
| 1777658431 | 10° C | 68% | 944.6 hPa | - | - | - | - |
| 1777657230 | 10° C | 69% | 944.4 hPa | - | - | - | - |
| 1777656029 | 9.44° C | 69% | 944.2 hPa | - | - | - | - |
* Rain since midnight (hover to see other rain measurements)
** Current wind speed in m/s (hover to see current wind gust speed)